Аэропорт: Актобе. Актобе

ICAO: UATT

METAR:
2022-01-28 08:30:00
UATT 280830Z 08006MPS CAVOK M09/M13 Q1014 NOSIG RMK QFE741/0988
METAR:
2022-01-28 05:02:00
TAF UATT 280502Z 2806/2906 10003MPS 3100 BR BKN011 TXM06/2812Z TNM16/2903Z TEMPO 2806/2814 11008MPS SCT005